sensor_id;sensor_type;location;lat;lon;timestamp;P1;durP1;ratioP1;P2;durP2;ratioP2
49223;SDS011;35050;51.316;5.994;2023-03-23T00:01:28;2.60;;;2.00;;
49223;SDS011;35050;51.316;5.994;2023-03-23T00:06:27;3.95;;;1.70;;
49223;SDS011;35050;51.316;5.994;2023-03-23T00:08:57;4.10;;;2.25;;
49223;SDS011;35050;51.316;5.994;2023-03-23T00:11:25;2.75;;;1.85;;
49223;SDS011;35050;51.316;5.994;2023-03-23T00:13:56;2.25;;;1.70;;
49223;SDS011;35050;51.316;5.994;2023-03-23T00:16:25;4.70;;;1.90;;
49223;SDS011;35050;51.316;5.994;2023-03-23T00:18:55;3.20;;;1.80;;
49223;SDS011;35050;51.316;5.994;2023-03-23T00:21:23;2.30;;;1.83;;
49223;SDS011;35050;51.316;5.994;2023-03-23T00:26:32;2.25;;;1.80;;
49223;SDS011;35050;51.316;5.994;2023-03-23T00:28:59;3.40;;;2.00;;
49223;SDS011;35050;51.316;5.994;2023-03-23T00:31:26;2.53;;;1.77;;
49223;SDS011;35050;51.316;5.994;2023-03-23T00:34:00;2.78;;;2.00;;
49223;SDS011;35050;51.316;5.994;2023-03-23T00:36:29;2.00;;;1.80;;
49223;SDS011;35050;51.316;5.994;2023-03-23T00:38:55;2.88;;;2.15;;
49223;SDS011;35050;51.316;5.994;2023-03-23T00:41:24;3.05;;;2.00;;
49223;SDS011;35050;51.316;5.994;2023-03-23T00:43:54;2.67;;;1.83;;
49223;SDS011;35050;51.316;5.994;2023-03-23T00:46:21;3.65;;;2.30;;
49223;SDS011;35050;51.316;5.994;2023-03-23T00:48:47;3.67;;;2.47;;
49223;SDS011;35050;51.316;5.994;2023-03-23T00:51:13;4.25;;;2.35;;
49223;SDS011;35050;51.316;5.994;2023-03-23T00:53:39;4.18;;;2.20;;
49223;SDS011;35050;51.316;5.994;2023-03-23T00:56:05;2.78;;;1.77;;
49223;SDS011;35050;51.316;5.994;2023-03-23T00:58:32;3.20;;;1.92;;
49223;SDS011;35050;51.316;5.994;2023-03-23T01:00:58;3.60;;;2.30;;
49223;SDS011;35050;51.316;5.994;2023-03-23T01:03:24;2.55;;;2.17;;
49223;SDS011;35050;51.316;5.994;2023-03-23T01:05:50;3.97;;;2.60;;
49223;SDS011;35050;51.316;5.994;2023-03-23T01:08:17;2.40;;;1.98;;
49223;SDS011;35050;51.316;5.994;2023-03-23T01:10:45;3.30;;;2.22;;
49223;SDS011;35050;51.316;5.994;2023-03-23T01:13:11;4.47;;;2.47;;
49223;SDS011;35050;51.316;5.994;2023-03-23T01:15:37;4.22;;;2.55;;
49223;SDS011;35050;51.316;5.994;2023-03-23T01:18:03;3.22;;;2.10;;
49223;SDS011;35050;51.316;5.994;2023-03-23T01:20:29;3.53;;;2.28;;
49223;SDS011;35050;51.316;5.994;2023-03-23T01:22:56;5.35;;;2.30;;
49223;SDS011;35050;51.316;5.994;2023-03-23T01:25:32;2.85;;;2.03;;
49223;SDS011;35050;51.316;5.994;2023-03-23T01:28:01;2.97;;;2.15;;
49223;SDS011;35050;51.316;5.994;2023-03-23T01:30:27;3.20;;;2.25;;
49223;SDS011;35050;51.316;5.994;2023-03-23T01:32:53;4.70;;;1.85;;
49223;SDS011;35050;51.316;5.994;2023-03-23T01:35:20;4.80;;;2.47;;
49223;SDS011;35050;51.316;5.994;2023-03-23T01:37:46;3.03;;;2.38;;
49223;SDS011;35050;51.316;5.994;2023-03-23T01:40:12;3.92;;;1.88;;
49223;SDS011;35050;51.316;5.994;2023-03-23T01:42:38;3.10;;;2.28;;
49223;SDS011;35050;51.316;5.994;2023-03-23T01:47:48;3.80;;;2.58;;
49223;SDS011;35050;51.316;5.994;2023-03-23T01:50:17;3.75;;;2.35;;
49223;SDS011;35050;51.316;5.994;2023-03-23T01:52:48;3.65;;;2.13;;
49223;SDS011;35050;51.316;5.994;2023-03-23T01:55:14;3.40;;;2.20;;
49223;SDS011;35050;51.316;5.994;2023-03-23T01:57:40;4.10;;;2.35;;
49223;SDS011;35050;51.316;5.994;2023-03-23T02:00:07;3.40;;;2.45;;
49223;SDS011;35050;51.316;5.994;2023-03-23T02:02:40;3.55;;;2.10;;
49223;SDS011;35050;51.316;5.994;2023-03-23T02:05:08;5.25;;;2.42;;
49223;SDS011;35050;51.316;5.994;2023-03-23T02:07:38;2.75;;;2.00;;
49223;SDS011;35050;51.316;5.994;2023-03-23T02:10:04;5.00;;;3.30;;
49223;SDS011;35050;51.316;5.994;2023-03-23T02:12:30;6.72;;;2.58;;
49223;SDS011;35050;51.316;5.994;2023-03-23T02:14:56;2.53;;;2.20;;
49223;SDS011;35050;51.316;5.994;2023-03-23T02:17:42;4.10;;;2.10;;
49223;SDS011;35050;51.316;5.994;2023-03-23T02:20:33;3.17;;;2.38;;
49223;SDS011;35050;51.316;5.994;2023-03-23T02:26:00;4.13;;;2.55;;
49223;SDS011;35050;51.316;5.994;2023-03-23T02:28:57;2.75;;;2.40;;
49223;SDS011;35050;51.316;5.994;2023-03-23T02:34:05;2.63;;;2.38;;
49223;SDS011;35050;51.316;5.994;2023-03-23T02:36:40;4.25;;;2.78;;
49223;SDS011;35050;51.316;5.994;2023-03-23T02:42:24;3.58;;;2.58;;
49223;SDS011;35050;51.316;5.994;2023-03-23T02:44:45;4.18;;;2.58;;
49223;SDS011;35050;51.316;5.994;2023-03-23T02:47:15;3.65;;;2.58;;
49223;SDS011;35050;51.316;5.994;2023-03-23T02:49:48;3.45;;;2.47;;
49223;SDS011;35050;51.316;5.994;2023-03-23T02:52:21;2.95;;;2.65;;
49223;SDS011;35050;51.316;5.994;2023-03-23T02:54:50;4.05;;;3.03;;
49223;SDS011;35050;51.316;5.994;2023-03-23T02:57:18;2.60;;;2.40;;
49223;SDS011;35050;51.316;5.994;2023-03-23T02:59:45;3.15;;;2.42;;
49223;SDS011;35050;51.316;5.994;2023-03-23T03:10:24;1.90;;;1.80;;
49223;SDS011;35050;51.316;5.994;2023-03-23T03:13:27;4.25;;;2.67;;
49223;SDS011;35050;51.316;5.994;2023-03-23T03:18:59;3.20;;;2.33;;
49223;SDS011;35050;51.316;5.994;2023-03-23T03:21:33;3.58;;;2.28;;
49223;SDS011;35050;51.316;5.994;2023-03-23T03:24:03;3.40;;;2.10;;
49223;SDS011;35050;51.316;5.994;2023-03-23T03:26:36;3.45;;;2.63;;
49223;SDS011;35050;51.316;5.994;2023-03-23T03:29:04;3.33;;;2.10;;
49223;SDS011;35050;51.316;5.994;2023-03-23T03:31:32;3.40;;;2.30;;
49223;SDS011;35050;51.316;5.994;2023-03-23T03:34:03;3.17;;;2.20;;
49223;SDS011;35050;51.316;5.994;2023-03-23T03:36:30;2.50;;;1.80;;
49223;SDS011;35050;51.316;5.994;2023-03-23T03:39:00;2.40;;;2.17;;
49223;SDS011;35050;51.316;5.994;2023-03-23T03:41:32;2.92;;;2.20;;
49223;SDS011;35050;51.316;5.994;2023-03-23T03:43:59;3.25;;;2.10;;
49223;SDS011;35050;51.316;5.994;2023-03-23T03:46:25;2.85;;;1.95;;
49223;SDS011;35050;51.316;5.994;2023-03-23T03:48:54;2.00;;;1.80;;
49223;SDS011;35050;51.316;5.994;2023-03-23T03:51:21;3.60;;;2.03;;
49223;SDS011;35050;51.316;5.994;2023-03-23T03:53:47;2.00;;;1.80;;
49223;SDS011;35050;51.316;5.994;2023-03-23T03:56:13;2.17;;;1.90;;
49223;SDS011;35050;51.316;5.994;2023-03-23T03:58:39;2.33;;;1.83;;
49223;SDS011;35050;51.316;5.994;2023-03-23T04:01:07;4.15;;;1.80;;
49223;SDS011;35050;51.316;5.994;2023-03-23T04:03:35;5.38;;;2.80;;
49223;SDS011;35050;51.316;5.994;2023-03-23T04:06:01;2.92;;;2.20;;
49223;SDS011;35050;51.316;5.994;2023-03-23T04:08:28;2.63;;;2.00;;
49223;SDS011;35050;51.316;5.994;2023-03-23T04:10:54;3.22;;;1.55;;
49223;SDS011;35050;51.316;5.994;2023-03-23T04:13:20;1.92;;;1.60;;
49223;SDS011;35050;51.316;5.994;2023-03-23T04:15:46;2.10;;;1.50;;
49223;SDS011;35050;51.316;5.994;2023-03-23T04:18:13;2.22;;;1.70;;
49223;SDS011;35050;51.316;5.994;2023-03-23T04:20:41;2.75;;;2.00;;
49223;SDS011;35050;51.316;5.994;2023-03-23T04:23:07;2.22;;;1.80;;
49223;SDS011;35050;51.316;5.994;2023-03-23T04:25:32;2.60;;;2.00;;
49223;SDS011;35050;51.316;5.994;2023-03-23T04:27:59;4.07;;;1.70;;
49223;SDS011;35050;51.316;5.994;2023-03-23T04:30:26;3.30;;;1.90;;
49223;SDS011;35050;51.316;5.994;2023-03-23T04:32:54;3.35;;;1.95;;
49223;SDS011;35050;51.316;5.994;2023-03-23T04:35:21;3.80;;;1.63;;
49223;SDS011;35050;51.316;5.994;2023-03-23T04:37:53;2.83;;;1.70;;
49223;SDS011;35050;51.316;5.994;2023-03-23T04:40:19;1.73;;;1.50;;
49223;SDS011;35050;51.316;5.994;2023-03-23T04:42:48;2.47;;;1.70;;
49223;SDS011;35050;51.316;5.994;2023-03-23T04:45:18;1.67;;;1.40;;
49223;SDS011;35050;51.316;5.994;2023-03-23T04:47:47;2.58;;;1.90;;
49223;SDS011;35050;51.316;5.994;2023-03-23T04:50:18;4.53;;;2.00;;
49223;SDS011;35050;51.316;5.994;2023-03-23T04:52:46;2.83;;;1.70;;
49223;SDS011;35050;51.316;5.994;2023-03-23T04:55:12;2.45;;;1.58;;
49223;SDS011;35050;51.316;5.994;2023-03-23T04:57:38;2.28;;;1.75;;
49223;SDS011;35050;51.316;5.994;2023-03-23T05:00:05;3.92;;;1.75;;
49223;SDS011;35050;51.316;5.994;2023-03-23T05:02:36;2.03;;;1.38;;
49223;SDS011;35050;51.316;5.994;2023-03-23T05:05:05;2.10;;;1.50;;
49223;SDS011;35050;51.316;5.994;2023-03-23T05:07:31;2.33;;;1.35;;
49223;SDS011;35050;51.316;5.994;2023-03-23T05:09:57;1.65;;;1.50;;
49223;SDS011;35050;51.316;5.994;2023-03-23T05:12:23;1.55;;;1.30;;
49223;SDS011;35050;51.316;5.994;2023-03-23T05:14:48;2.65;;;1.70;;
49223;SDS011;35050;51.316;5.994;2023-03-23T05:17:14;2.70;;;1.65;;
49223;SDS011;35050;51.316;5.994;2023-03-23T05:19:42;1.67;;;1.27;;
49223;SDS011;35050;51.316;5.994;2023-03-23T05:22:13;3.95;;;1.88;;
49223;SDS011;35050;51.316;5.994;2023-03-23T05:24:39;2.90;;;1.60;;
49223;SDS011;35050;51.316;5.994;2023-03-23T05:27:05;2.40;;;1.20;;
49223;SDS011;35050;51.316;5.994;2023-03-23T05:29:33;5.15;;;1.90;;
49223;SDS011;35050;51.316;5.994;2023-03-23T05:32:01;3.38;;;1.45;;
49223;SDS011;35050;51.316;5.994;2023-03-23T05:34:28;2.72;;;1.33;;
49223;SDS011;35050;51.316;5.994;2023-03-23T05:36:57;3.08;;;1.98;;
49223;SDS011;35050;51.316;5.994;2023-03-23T05:39:24;5.03;;;1.50;;
49223;SDS011;35050;51.316;5.994;2023-03-23T05:41:50;2.75;;;1.60;;
49223;SDS011;35050;51.316;5.994;2023-03-23T05:44:16;3.75;;;1.42;;
49223;SDS011;35050;51.316;5.994;2023-03-23T05:46:42;4.05;;;1.40;;
49223;SDS011;35050;51.316;5.994;2023-03-23T05:49:08;2.67;;;1.50;;
49223;SDS011;35050;51.316;5.994;2023-03-23T05:51:34;4.35;;;1.50;;
49223;SDS011;35050;51.316;5.994;2023-03-23T05:54:01;2.45;;;1.30;;
49223;SDS011;35050;51.316;5.994;2023-03-23T05:56:28;2.38;;;1.50;;
49223;SDS011;35050;51.316;5.994;2023-03-23T05:58:55;3.80;;;1.73;;
49223;SDS011;35050;51.316;5.994;2023-03-23T06:01:21;3.30;;;1.50;;
49223;SDS011;35050;51.316;5.994;2023-03-23T06:03:46;3.95;;;1.50;;
49223;SDS011;35050;51.316;5.994;2023-03-23T06:06:14;4.75;;;1.58;;
49223;SDS011;35050;51.316;5.994;2023-03-23T06:08:39;6.20;;;1.73;;
49223;SDS011;35050;51.316;5.994;2023-03-23T06:11:05;4.22;;;1.67;;
49223;SDS011;35050;51.316;5.994;2023-03-23T06:13:31;4.00;;;1.40;;
49223;SDS011;35050;51.316;5.994;2023-03-23T06:15:57;5.85;;;1.77;;
49223;SDS011;35050;51.316;5.994;2023-03-23T06:18:23;3.38;;;1.48;;
49223;SDS011;35050;51.316;5.994;2023-03-23T06:20:49;6.28;;;1.30;;
49223;SDS011;35050;51.316;5.994;2023-03-23T06:23:15;6.15;;;1.50;;
49223;SDS011;35050;51.316;5.994;2023-03-23T06:25:42;6.90;;;2.08;;
49223;SDS011;35050;51.316;5.994;2023-03-23T06:28:09;4.22;;;1.25;;
49223;SDS011;35050;51.316;5.994;2023-03-23T06:30:35;4.47;;;1.30;;
49223;SDS011;35050;51.316;5.994;2023-03-23T06:33:02;2.80;;;1.27;;
49223;SDS011;35050;51.316;5.994;2023-03-23T06:35:30;4.63;;;1.40;;
49223;SDS011;35050;51.316;5.994;2023-03-23T06:37:56;3.72;;;0.95;;
49223;SDS011;35050;51.316;5.994;2023-03-23T06:40:26;4.35;;;2.15;;
49223;SDS011;35050;51.316;5.994;2023-03-23T06:42:53;3.92;;;1.38;;
49223;SDS011;35050;51.316;5.994;2023-03-23T06:45:19;5.28;;;1.40;;
49223;SDS011;35050;51.316;5.994;2023-03-23T06:47:45;2.20;;;1.10;;
49223;SDS011;35050;51.316;5.994;2023-03-23T06:50:13;2.28;;;1.15;;
49223;SDS011;35050;51.316;5.994;2023-03-23T06:52:40;2.13;;;1.17;;
49223;SDS011;35050;51.316;5.994;2023-03-23T06:55:06;2.63;;;1.00;;
49223;SDS011;35050;51.316;5.994;2023-03-23T06:57:32;4.03;;;1.23;;
49223;SDS011;35050;51.316;5.994;2023-03-23T06:59:58;3.20;;;1.10;;
49223;SDS011;35050;51.316;5.994;2023-03-23T07:02:23;3.20;;;1.42;;
49223;SDS011;35050;51.316;5.994;2023-03-23T07:04:50;1.73;;;1.10;;
49223;SDS011;35050;51.316;5.994;2023-03-23T07:07:16;1.48;;;1.13;;
49223;SDS011;35050;51.316;5.994;2023-03-23T07:09:43;3.90;;;1.45;;
49223;SDS011;35050;51.316;5.994;2023-03-23T07:12:10;1.98;;;1.00;;
49223;SDS011;35050;51.316;5.994;2023-03-23T07:14:35;3.17;;;1.30;;
49223;SDS011;35050;51.316;5.994;2023-03-23T07:17:02;3.33;;;1.73;;
49223;SDS011;35050;51.316;5.994;2023-03-23T07:19:28;3.03;;;1.10;;
49223;SDS011;35050;51.316;5.994;2023-03-23T07:21:54;5.38;;;1.35;;
49223;SDS011;35050;51.316;5.994;2023-03-23T07:24:21;3.45;;;1.23;;
49223;SDS011;35050;51.316;5.994;2023-03-23T07:26:47;2.03;;;1.20;;
49223;SDS011;35050;51.316;5.994;2023-03-23T07:29:13;4.57;;;1.73;;
49223;SDS011;35050;51.316;5.994;2023-03-23T07:31:38;2.78;;;1.20;;
49223;SDS011;35050;51.316;5.994;2023-03-23T07:34:04;2.67;;;1.20;;
49223;SDS011;35050;51.316;5.994;2023-03-23T07:36:30;4.15;;;1.42;;
49223;SDS011;35050;51.316;5.994;2023-03-23T07:38:56;3.60;;;1.20;;
49223;SDS011;35050;51.316;5.994;2023-03-23T07:41:23;5.63;;;1.23;;
49223;SDS011;35050;51.316;5.994;2023-03-23T07:43:49;2.85;;;1.10;;
49223;SDS011;35050;51.316;5.994;2023-03-23T07:46:15;3.40;;;1.25;;
49223;SDS011;35050;51.316;5.994;2023-03-23T07:48:41;3.05;;;1.10;;
49223;SDS011;35050;51.316;5.994;2023-03-23T07:51:06;4.82;;;1.35;;
49223;SDS011;35050;51.316;5.994;2023-03-23T07:53:32;3.97;;;1.35;;
49223;SDS011;35050;51.316;5.994;2023-03-23T07:55:58;3.00;;;1.20;;
49223;SDS011;35050;51.316;5.994;2023-03-23T07:58:24;4.63;;;2.13;;
49223;SDS011;35050;51.316;5.994;2023-03-23T08:00:51;3.80;;;1.60;;
49223;SDS011;35050;51.316;5.994;2023-03-23T08:03:17;2.13;;;1.30;;
49223;SDS011;35050;51.316;5.994;2023-03-23T08:05:43;5.40;;;2.03;;
49223;SDS011;35050;51.316;5.994;2023-03-23T08:08:09;3.78;;;1.60;;
49223;SDS011;35050;51.316;5.994;2023-03-23T08:10:35;5.10;;;1.45;;
49223;SDS011;35050;51.316;5.994;2023-03-23T08:13:01;3.92;;;1.25;;
49223;SDS011;35050;51.316;5.994;2023-03-23T08:15:27;5.88;;;1.55;;
49223;SDS011;35050;51.316;5.994;2023-03-23T08:17:54;2.85;;;1.33;;
49223;SDS011;35050;51.316;5.994;2023-03-23T08:20:19;3.55;;;1.38;;
49223;SDS011;35050;51.316;5.994;2023-03-23T08:22:52;4.55;;;1.58;;
49223;SDS011;35050;51.316;5.994;2023-03-23T08:25:20;4.40;;;1.50;;
49223;SDS011;35050;51.316;5.994;2023-03-23T08:27:46;3.75;;;1.75;;
49223;SDS011;35050;51.316;5.994;2023-03-23T08:30:14;4.60;;;1.48;;
49223;SDS011;35050;51.316;5.994;2023-03-23T08:32:41;4.63;;;1.50;;
49223;SDS011;35050;51.316;5.994;2023-03-23T08:35:08;4.68;;;1.25;;
49223;SDS011;35050;51.316;5.994;2023-03-23T08:37:35;2.83;;;1.00;;
49223;SDS011;35050;51.316;5.994;2023-03-23T08:40:02;4.60;;;1.50;;
49223;SDS011;35050;51.316;5.994;2023-03-23T08:42:38;4.32;;;1.10;;
49223;SDS011;35050;51.316;5.994;2023-03-23T08:45:05;3.88;;;1.15;;
49223;SDS011;35050;51.316;5.994;2023-03-23T08:47:32;2.58;;;0.90;;
49223;SDS011;35050;51.316;5.994;2023-03-23T08:50:00;2.88;;;1.08;;
49223;SDS011;35050;51.316;5.994;2023-03-23T08:52:26;4.07;;;1.10;;
49223;SDS011;35050;51.316;5.994;2023-03-23T08:54:53;4.00;;;1.58;;
49223;SDS011;35050;51.316;5.994;2023-03-23T08:57:19;2.78;;;1.38;;
49223;SDS011;35050;51.316;5.994;2023-03-23T08:59:45;2.67;;;1.08;;
49223;SDS011;35050;51.316;5.994;2023-03-23T09:02:11;2.03;;;1.00;;
49223;SDS011;35050;51.316;5.994;2023-03-23T09:04:37;5.25;;;1.30;;
49223;SDS011;35050;51.316;5.994;2023-03-23T09:07:04;3.25;;;0.98;;
49223;SDS011;35050;51.316;5.994;2023-03-23T09:09:31;1.45;;;0.88;;
49223;SDS011;35050;51.316;5.994;2023-03-23T09:11:59;3.08;;;1.08;;
49223;SDS011;35050;51.316;5.994;2023-03-23T09:14:24;1.77;;;0.80;;
49223;SDS011;35050;51.316;5.994;2023-03-23T09:16:50;2.75;;;0.88;;
49223;SDS011;35050;51.316;5.994;2023-03-23T09:19:16;1.90;;;0.93;;
49223;SDS011;35050;51.316;5.994;2023-03-23T09:21:42;4.53;;;0.90;;
49223;SDS011;35050;51.316;5.994;2023-03-23T09:24:10;3.05;;;1.08;;
49223;SDS011;35050;51.316;5.994;2023-03-23T09:26:36;2.85;;;1.13;;
49223;SDS011;35050;51.316;5.994;2023-03-23T09:29:02;1.05;;;0.60;;
49223;SDS011;35050;51.316;5.994;2023-03-23T09:31:28;3.78;;;1.10;;
49223;SDS011;35050;51.316;5.994;2023-03-23T09:33:56;1.98;;;0.52;;
49223;SDS011;35050;51.316;5.994;2023-03-23T09:36:23;2.72;;;1.20;;
49223;SDS011;35050;51.316;5.994;2023-03-23T09:38:50;2.47;;;0.80;;
49223;SDS011;35050;51.316;5.994;2023-03-23T09:43:55;1.45;;;0.70;;
49223;SDS011;35050;51.316;5.994;2023-03-23T09:49:33;2.90;;;0.90;;
49223;SDS011;35050;51.316;5.994;2023-03-23T09:52:19;1.98;;;0.93;;
49223;SDS011;35050;51.316;5.994;2023-03-23T09:54:47;1.58;;;0.60;;
49223;SDS011;35050;51.316;5.994;2023-03-23T09:59:53;1.15;;;0.40;;
49223;SDS011;35050;51.316;5.994;2023-03-23T10:05:50;2.70;;;0.40;;
49223;SDS011;35050;51.316;5.994;2023-03-23T10:08:18;1.08;;;0.45;;
49223;SDS011;35050;51.316;5.994;2023-03-23T10:13:28;1.92;;;0.50;;
49223;SDS011;35050;51.316;5.994;2023-03-23T10:16:17;1.52;;;0.55;;
49223;SDS011;35050;51.316;5.994;2023-03-23T10:18:50;0.93;;;0.45;;
49223;SDS011;35050;51.316;5.994;2023-03-23T10:21:26;0.70;;;0.40;;
49223;SDS011;35050;51.316;5.994;2023-03-23T10:23:59;2.30;;;0.57;;
49223;SDS011;35050;51.316;5.994;2023-03-23T10:26:41;1.67;;;0.70;;
49223;SDS011;35050;51.316;5.994;2023-03-23T10:33:08;1.13;;;0.50;;
49223;SDS011;35050;51.316;5.994;2023-03-23T10:35:42;1.88;;;0.70;;
49223;SDS011;35050;51.316;5.994;2023-03-23T10:38:20;1.33;;;0.85;;
49223;SDS011;35050;51.316;5.994;2023-03-23T10:43:18;1.30;;;0.77;;
49223;SDS011;35050;51.316;5.994;2023-03-23T10:45:45;2.17;;;0.80;;
49223;SDS011;35050;51.316;5.994;2023-03-23T10:48:28;2.53;;;0.70;;
49223;SDS011;35050;51.316;5.994;2023-03-23T10:50:59;1.75;;;0.80;;
49223;SDS011;35050;51.316;5.994;2023-03-23T10:53:37;1.63;;;0.70;;
49223;SDS011;35050;51.316;5.994;2023-03-23T10:56:19;3.78;;;0.93;;
49223;SDS011;35050;51.316;5.994;2023-03-23T10:58:52;1.35;;;0.70;;
49223;SDS011;35050;51.316;5.994;2023-03-23T11:01:19;0.90;;;0.80;;
49223;SDS011;35050;51.316;5.994;2023-03-23T11:03:53;2.45;;;0.98;;
49223;SDS011;35050;51.316;5.994;2023-03-23T11:06:22;3.00;;;0.95;;
49223;SDS011;35050;51.316;5.994;2023-03-23T11:09:12;1.52;;;0.70;;
49223;SDS011;35050;51.316;5.994;2023-03-23T11:11:41;1.42;;;0.68;;
49223;SDS011;35050;51.316;5.994;2023-03-23T11:14:24;2.33;;;0.80;;
49223;SDS011;35050;51.316;5.994;2023-03-23T11:17:04;0.98;;;0.68;;
49223;SDS011;35050;51.316;5.994;2023-03-23T11:19:45;0.98;;;0.80;;
49223;SDS011;35050;51.316;5.994;2023-03-23T11:22:19;2.15;;;0.70;;
49223;SDS011;35050;51.316;5.994;2023-03-23T11:24:56;1.80;;;0.82;;
49223;SDS011;35050;51.316;5.994;2023-03-23T11:27:26;3.15;;;0.93;;
49223;SDS011;35050;51.316;5.994;2023-03-23T11:29:54;2.17;;;0.60;;
49223;SDS011;35050;51.316;5.994;2023-03-23T11:32:25;1.38;;;0.63;;
49223;SDS011;35050;51.316;5.994;2023-03-23T11:34:56;1.53;;;0.80;;
49223;SDS011;35050;51.316;5.994;2023-03-23T11:37:40;1.02;;;0.60;;
49223;SDS011;35050;51.316;5.994;2023-03-23T11:42:42;1.23;;;0.50;;
49223;SDS011;35050;51.316;5.994;2023-03-23T11:45:30;1.40;;;0.70;;
49223;SDS011;35050;51.316;5.994;2023-03-23T11:50:28;1.67;;;0.60;;
49223;SDS011;35050;51.316;5.994;2023-03-23T11:58:12;1.92;;;1.13;;
49223;SDS011;35050;51.316;5.994;2023-03-23T12:06:18;2.25;;;1.17;;
49223;SDS011;35050;51.316;5.994;2023-03-23T12:08:59;1.92;;;0.75;;
49223;SDS011;35050;51.316;5.994;2023-03-23T12:11:45;2.50;;;1.00;;
49223;SDS011;35050;51.316;5.994;2023-03-23T12:14:40;2.10;;;1.02;;
49223;SDS011;35050;51.316;5.994;2023-03-23T12:17:24;1.88;;;1.40;;
49223;SDS011;35050;51.316;5.994;2023-03-23T12:20:18;1.67;;;1.20;;
49223;SDS011;35050;51.316;5.994;2023-03-23T12:31:02;2.88;;;1.40;;
49223;SDS011;35050;51.316;5.994;2023-03-23T12:44:53;2.92;;;1.48;;
49223;SDS011;35050;51.316;5.994;2023-03-23T12:50:13;8.43;;;2.08;;
49223;SDS011;35050;51.316;5.994;2023-03-23T13:03:43;4.43;;;1.63;;
49223;SDS011;35050;51.316;5.994;2023-03-23T13:06:17;3.17;;;1.60;;
49223;SDS011;35050;51.316;5.994;2023-03-23T13:11:38;6.10;;;1.80;;
49223;SDS011;35050;51.316;5.994;2023-03-23T13:25:02;3.35;;;1.60;;
49223;SDS011;35050;51.316;5.994;2023-03-23T13:27:34;2.45;;;1.35;;
49223;SDS011;35050;51.316;5.994;2023-03-23T13:30:00;5.35;;;2.20;;
49223;SDS011;35050;51.316;5.994;2023-03-23T13:32:38;4.00;;;1.58;;
49223;SDS011;35050;51.316;5.994;2023-03-23T13:35:12;3.08;;;1.50;;
49223;SDS011;35050;51.316;5.994;2023-03-23T13:37:41;4.18;;;1.67;;
49223;SDS011;35050;51.316;5.994;2023-03-23T13:40:24;4.95;;;1.80;;
49223;SDS011;35050;51.316;5.994;2023-03-23T13:42:53;3.50;;;1.52;;
49223;SDS011;35050;51.316;5.994;2023-03-23T13:45:35;3.53;;;1.75;;
49223;SDS011;35050;51.316;5.994;2023-03-23T13:53:24;3.95;;;1.55;;
49223;SDS011;35050;51.316;5.994;2023-03-23T13:59:46;3.53;;;1.70;;
49223;SDS011;35050;51.316;5.994;2023-03-23T14:01:52;3.15;;;1.50;;
49223;SDS011;35050;51.316;5.994;2023-03-23T14:04:20;5.88;;;2.10;;
49223;SDS011;35050;51.316;5.994;2023-03-23T14:06:48;4.10;;;1.60;;
49223;SDS011;35050;51.316;5.994;2023-03-23T14:09:17;4.28;;;1.70;;
49223;SDS011;35050;51.316;5.994;2023-03-23T14:11:56;5.47;;;2.00;;
49223;SDS011;35050;51.316;5.994;2023-03-23T14:14:34;3.58;;;1.50;;
49223;SDS011;35050;51.316;5.994;2023-03-23T14:17:15;4.05;;;1.40;;
49223;SDS011;35050;51.316;5.994;2023-03-23T14:19:54;2.92;;;1.40;;
49223;SDS011;35050;51.316;5.994;2023-03-23T14:22:33;2.83;;;1.58;;
49223;SDS011;35050;51.316;5.994;2023-03-23T14:25:14;3.95;;;1.45;;
49223;SDS011;35050;51.316;5.994;2023-03-23T14:27:42;5.35;;;1.65;;
49223;SDS011;35050;51.316;5.994;2023-03-23T14:30:15;4.38;;;1.70;;
49223;SDS011;35050;51.316;5.994;2023-03-23T14:32:43;4.07;;;1.45;;
49223;SDS011;35050;51.316;5.994;2023-03-23T14:35:14;4.60;;;1.75;;
49223;SDS011;35050;51.316;5.994;2023-03-23T14:37:53;5.82;;;2.10;;
49223;SDS011;35050;51.316;5.994;2023-03-23T14:40:20;6.05;;;1.88;;
49223;SDS011;35050;51.316;5.994;2023-03-23T14:42:46;4.50;;;1.65;;
49223;SDS011;35050;51.316;5.994;2023-03-23T14:45:16;5.13;;;1.42;;
49223;SDS011;35050;51.316;5.994;2023-03-23T14:47:47;5.93;;;1.75;;
49223;SDS011;35050;51.316;5.994;2023-03-23T14:53:02;5.07;;;1.40;;
49223;SDS011;35050;51.316;5.994;2023-03-23T14:55:35;3.75;;;1.63;;
49223;SDS011;35050;51.316;5.994;2023-03-23T14:58:05;2.75;;;1.30;;
49223;SDS011;35050;51.316;5.994;2023-03-23T15:00:37;2.65;;;1.50;;
49223;SDS011;35050;51.316;5.994;2023-03-23T15:03:10;3.83;;;1.70;;
49223;SDS011;35050;51.316;5.994;2023-03-23T15:05:50;4.22;;;1.38;;
49223;SDS011;35050;51.316;5.994;2023-03-23T15:08:26;5.72;;;1.33;;
49223;SDS011;35050;51.316;5.994;2023-03-23T15:13:44;4.47;;;1.70;;
49223;SDS011;35050;51.316;5.994;2023-03-23T15:16:22;3.50;;;1.45;;
49223;SDS011;35050;51.316;5.994;2023-03-23T15:18:53;5.60;;;1.98;;
49223;SDS011;35050;51.316;5.994;2023-03-23T15:21:36;2.58;;;1.27;;
49223;SDS011;35050;51.316;5.994;2023-03-23T15:24:40;3.85;;;1.60;;
49223;SDS011;35050;51.316;5.994;2023-03-23T15:29:50;3.95;;;1.35;;
49223;SDS011;35050;51.316;5.994;2023-03-23T15:32:24;8.10;;;2.03;;
49223;SDS011;35050;51.316;5.994;2023-03-23T15:34:52;6.82;;;2.33;;
49223;SDS011;35050;51.316;5.994;2023-03-23T15:37:19;5.65;;;2.15;;
49223;SDS011;35050;51.316;5.994;2023-03-23T15:39:48;4.20;;;1.90;;
49223;SDS011;35050;51.316;5.994;2023-03-23T15:42:19;5.88;;;2.22;;
49223;SDS011;35050;51.316;5.994;2023-03-23T15:44:58;4.05;;;1.85;;
49223;SDS011;35050;51.316;5.994;2023-03-23T15:47:34;4.43;;;1.73;;
49223;SDS011;35050;51.316;5.994;2023-03-23T15:50:04;4.57;;;2.08;;
49223;SDS011;35050;51.316;5.994;2023-03-23T15:52:36;4.78;;;1.35;;
49223;SDS011;35050;51.316;5.994;2023-03-23T15:55:02;5.95;;;2.00;;
49223;SDS011;35050;51.316;5.994;2023-03-23T15:57:28;3.53;;;2.03;;
49223;SDS011;35050;51.316;5.994;2023-03-23T15:59:54;4.05;;;1.67;;
49223;SDS011;35050;51.316;5.994;2023-03-23T16:02:20;7.18;;;2.03;;
49223;SDS011;35050;51.316;5.994;2023-03-23T16:04:49;4.85;;;1.77;;
49223;SDS011;35050;51.316;5.994;2023-03-23T16:07:16;6.22;;;1.83;;
49223;SDS011;35050;51.316;5.994;2023-03-23T16:09:45;4.45;;;1.77;;
49223;SDS011;35050;51.316;5.994;2023-03-23T16:12:11;4.60;;;1.63;;
49223;SDS011;35050;51.316;5.994;2023-03-23T16:14:37;3.72;;;1.70;;
49223;SDS011;35050;51.316;5.994;2023-03-23T16:17:04;5.13;;;1.80;;
49223;SDS011;35050;51.316;5.994;2023-03-23T16:19:30;5.00;;;1.92;;
49223;SDS011;35050;51.316;5.994;2023-03-23T16:21:56;4.13;;;1.38;;
49223;SDS011;35050;51.316;5.994;2023-03-23T16:24:21;2.72;;;1.40;;
49223;SDS011;35050;51.316;5.994;2023-03-23T16:26:47;3.65;;;1.60;;
49223;SDS011;35050;51.316;5.994;2023-03-23T16:29:13;3.38;;;1.20;;
49223;SDS011;35050;51.316;5.994;2023-03-23T16:31:40;2.38;;;1.23;;
49223;SDS011;35050;51.316;5.994;2023-03-23T16:34:06;3.13;;;1.80;;
49223;SDS011;35050;51.316;5.994;2023-03-23T16:36:33;1.90;;;1.23;;
49223;SDS011;35050;51.316;5.994;2023-03-23T16:38:59;3.50;;;1.40;;
49223;SDS011;35050;51.316;5.994;2023-03-23T16:41:25;3.50;;;1.13;;
49223;SDS011;35050;51.316;5.994;2023-03-23T16:43:50;4.55;;;1.33;;
49223;SDS011;35050;51.316;5.994;2023-03-23T16:46:16;4.82;;;1.50;;
49223;SDS011;35050;51.316;5.994;2023-03-23T16:48:41;2.58;;;1.27;;
49223;SDS011;35050;51.316;5.994;2023-03-23T16:51:07;2.53;;;1.27;;
49223;SDS011;35050;51.316;5.994;2023-03-23T16:53:33;4.38;;;1.67;;
49223;SDS011;35050;51.316;5.994;2023-03-23T16:56:00;3.38;;;1.30;;
49223;SDS011;35050;51.316;5.994;2023-03-23T16:58:26;3.30;;;1.40;;
49223;SDS011;35050;51.316;5.994;2023-03-23T17:00:52;4.10;;;1.40;;
49223;SDS011;35050;51.316;5.994;2023-03-23T17:03:18;3.05;;;1.20;;
49223;SDS011;35050;51.316;5.994;2023-03-23T17:05:46;5.82;;;1.65;;
49223;SDS011;35050;51.316;5.994;2023-03-23T17:08:12;4.15;;;2.00;;
49223;SDS011;35050;51.316;5.994;2023-03-23T17:10:38;3.22;;;1.67;;